Totland Bay, United Kingdom
Current Conditions -  °F | °C
As of 5:20 PM on Saturday 20 Dec 2014 (Local Time) from EGHH Reporting Station
Clear Clear  
Wind Chill: 41°   Ceiling: Unl
Heat Index: 45°   Visibility: 6mi
Dew Point: 37°   Wind: 7mph
Humidity: 76%   Direction: 290°WNW
Pressure: 30.45"   Gusts: NA
Location:  50.68°N, 1.53°W
Report Text: EGHH 201720Z 29006KT CAVOK 07/03 Q1031
Loading
Personal Weather Stations






























Interactive Weather Map New forecast layout! Learn more

10-Day Weather Forecast

Advertisements
Track Severe Weather on mobile